createdAt,value
2022-08-08T00:00:55.475Z,99092.41
2022-08-08T00:02:31.216Z,99106.66
2022-08-08T00:04:38.211Z,99098.97
2022-08-08T00:07:13.073Z,99094.34
2022-08-08T00:09:27.638Z,99098.88
2022-08-08T00:11:47.155Z,99094.25
2022-08-08T00:14:16.714Z,99098.22
2022-08-08T00:16:56.908Z,99096.97
2022-08-08T00:19:13.228Z,99094.00
2022-08-08T00:21:23.167Z,99094.88
2022-08-08T00:23:43.548Z,99095.81
2022-08-08T00:25:56.429Z,99103.38
2022-08-08T00:28:01.458Z,99102.34
2022-08-08T00:30:11.395Z,99109.66
2022-08-08T00:32:35.055Z,99110.25
2022-08-08T00:35:18.466Z,99098.44
2022-08-08T00:37:48.223Z,99098.50
2022-08-08T00:41:10.839Z,99098.88
2022-08-08T00:43:22.278Z,99097.03
2022-08-08T00:45:48.168Z,99101.53
2022-08-08T00:48:29.947Z,99093.59
2022-08-08T00:51:09.694Z,99095.09
2022-08-08T00:53:29.570Z,99094.63
2022-08-08T00:55:54.660Z,99092.78
2022-08-08T00:58:20.589Z,99089.78
2022-08-08T01:00:28.493Z,99091.50
2022-08-08T01:03:57.271Z,99096.00
2022-08-08T01:05:59.450Z,99082.84
2022-08-08T01:08:18.768Z,99093.97
2022-08-08T01:10:45.710Z,99088.53
2022-08-08T01:13:16.498Z,99090.22
2022-08-08T01:15:43.692Z,99091.94
2022-08-08T01:18:25.415Z,99096.72
2022-08-08T01:21:16.668Z,99089.63
2022-08-08T01:24:05.843Z,99104.63
2022-08-08T01:26:24.100Z,99097.75
2022-08-08T01:28:29.656Z,99096.72
2022-08-08T01:32:06.550Z,99094.81
2022-08-08T01:34:00.961Z,99096.84
2022-08-08T01:36:37.127Z,99104.06
2022-08-08T01:38:58.916Z,99098.88
2022-08-08T01:41:21.734Z,99103.34
2022-08-08T01:43:38.866Z,99099.53
2022-08-08T01:45:44.572Z,99098.44
2022-08-08T01:48:30.977Z,99098.22
2022-08-08T01:51:01.757Z,99104.63
2022-08-08T01:55:17.848Z,99092.81
2022-08-08T01:56:29.613Z,99089.28
2022-08-08T01:59:08.036Z,99101.50
2022-08-08T02:02:00.060Z,99102.38
2022-08-08T02:04:24.510Z,99107.13
2022-08-08T02:06:49.609Z,99103.00
2022-08-08T02:09:03.543Z,99097.53
2022-08-08T02:11:52.929Z,99101.69
2022-08-08T02:14:03.105Z,99103.72
2022-08-08T02:16:46.758Z,99096.00
2022-08-08T02:19:00.874Z,99103.19
2022-08-08T02:21:42.716Z,99102.66
2022-08-08T02:23:55.603Z,99098.00
2022-08-08T02:26:08.311Z,99094.72
2022-08-08T02:28:26.052Z,99100.00
2022-08-08T02:31:43.527Z,99093.41
2022-08-08T02:34:09.840Z,99097.81
2022-08-08T02:36:38.555Z,99093.16
2022-08-08T02:39:41.178Z,99095.09
2022-08-08T02:42:05.729Z,99101.50
2022-08-08T02:44:58.062Z,99103.72
2022-08-08T02:47:40.071Z,99098.25
2022-08-08T02:50:17.578Z,99104.34
2022-08-08T02:52:50.440Z,99102.13
2022-08-08T02:55:19.784Z,99096.38
2022-08-08T02:58:05.413Z,99102.78
2022-08-08T03:00:32.184Z,99102.50
2022-08-08T03:02:53.727Z,99106.97
2022-08-08T03:05:09.460Z,99111.09
2022-08-08T03:07:58.866Z,99108.09
2022-08-08T03:10:44.068Z,99120.25
2022-08-08T03:14:15.781Z,99124.72
2022-08-08T03:16:05.559Z,99119.75
2022-08-08T03:18:31.256Z,99123.09
2022-08-08T03:20:47.011Z,99119.25
2022-08-08T03:22:59.625Z,99128.63
2022-08-08T03:25:14.771Z,99122.56
2022-08-08T03:27:30.074Z,99125.06
2022-08-08T03:29:56.416Z,99122.59
2022-08-08T03:32:19.788Z,99136.94
2022-08-08T03:34:21.656Z,99138.34
2022-08-08T03:36:27.882Z,99128.69
2022-08-08T03:38:57.778Z,99138.38
2022-08-08T03:40:57.202Z,99145.25
2022-08-08T03:43:15.718Z,99144.72
2022-08-08T03:46:05.676Z,99149.72
2022-08-08T03:48:10.154Z,99144.72
2022-08-08T03:50:26.713Z,99147.78
2022-08-08T03:52:32.111Z,99143.66
2022-08-08T03:54:41.094Z,99148.59
2022-08-08T03:56:54.198Z,99142.84
2022-08-08T03:58:58.261Z,99160.75
2022-08-08T04:02:12.698Z,99153.03
2022-08-08T04:03:56.971Z,99157.19
2022-08-08T04:05:50.082Z,99151.41
2022-08-08T04:07:57.941Z,99151.69
2022-08-08T04:10:05.374Z,99148.41
2022-08-08T04:12:11.770Z,99154.16
2022-08-08T04:14:34.683Z,99152.00
2022-08-08T04:16:41.073Z,99153.38
2022-08-08T04:18:48.919Z,99155.31
2022-08-08T04:20:55.929Z,99159.44
2022-08-08T04:22:58.942Z,99157.78
2022-08-08T04:25:02.446Z,99171.56
2022-08-08T04:27:07.577Z,99172.94
2022-08-08T04:29:21.458Z,99174.06
2022-08-08T04:31:57.345Z,99172.41
2022-08-08T04:33:45.248Z,99182.03
2022-08-08T04:35:50.640Z,99174.06
2022-08-08T04:37:56.035Z,99182.34
2022-08-08T04:40:07.849Z,99192.53
2022-08-08T04:42:20.439Z,99193.63
2022-08-08T04:44:22.278Z,99183.72
2022-08-08T04:46:30.954Z,99194.72
2022-08-08T04:48:33.510Z,99197.50
2022-08-08T04:50:38.529Z,99200.25
2022-08-08T04:52:48.562Z,99198.28
2022-08-08T04:55:01.861Z,99198.03
2022-08-08T04:57:04.001Z,99203.25
2022-08-08T04:59:06.163Z,99204.91
2022-08-08T05:01:10.882Z,99213.19
2022-08-08T05:04:11.518Z,99205.47
2022-08-08T05:05:45.440Z,99212.06
2022-08-08T05:07:50.082Z,99211.78
2022-08-08T05:09:52.322Z,99208.75
2022-08-08T05:11:57.519Z,99218.69
2022-08-08T05:14:02.853Z,99215.38
2022-08-08T05:16:51.606Z,99212.03
2022-08-08T05:18:30.420Z,99218.13
2022-08-08T05:20:32.707Z,99215.06
2022-08-08T05:22:35.849Z,99209.84
2022-08-08T05:24:38.643Z,99217.53
2022-08-08T05:26:48.721Z,99223.63
2022-08-08T05:28:57.485Z,99217.53
2022-08-08T05:31:08.526Z,99218.91
2022-08-08T05:33:21.336Z,99224.13
2022-08-08T05:35:26.433Z,99233.50
2022-08-08T05:37:52.319Z,99224.41
2022-08-08T05:39:56.870Z,99224.69
2022-08-08T05:42:01.055Z,99224.13
2022-08-08T05:44:11.871Z,99229.84
2022-08-08T05:46:15.000Z,99231.22
2022-08-08T05:48:18.268Z,99227.88
2022-08-08T05:50:33.505Z,99221.47
2022-08-08T05:52:37.267Z,99224.47
2022-08-08T05:54:49.664Z,99225.25
2022-08-08T05:56:55.650Z,99226.88
2022-08-08T05:59:12.735Z,99226.50
2022-08-08T06:01:55.953Z,99227.00
2022-08-08T06:03:42.046Z,99223.59
2022-08-08T06:05:59.560Z,99230.41
2022-08-08T06:08:09.423Z,99236.94
2022-08-08T06:10:24.639Z,99231.00
2022-08-08T06:12:30.129Z,99236.38
2022-08-08T06:14:35.157Z,99235.69
2022-08-08T06:16:37.849Z,99240.75
2022-08-08T06:18:51.401Z,99235.81
2022-08-08T06:20:57.682Z,99235.59
2022-08-08T06:23:00.615Z,99245.28
2022-08-08T06:25:11.118Z,99245.56
2022-08-08T06:27:18.590Z,99251.03
2022-08-08T06:29:56.730Z,99249.31
2022-08-08T06:32:15.346Z,99247.50
2022-08-08T06:34:29.468Z,99247.84
2022-08-08T06:36:53.092Z,99247.59
2022-08-08T06:38:56.026Z,99252.38
2022-08-08T06:41:05.035Z,99241.84
2022-08-08T06:43:10.160Z,99237.41
2022-08-08T06:45:33.950Z,99238.97
2022-08-08T06:47:58.258Z,99243.41
2022-08-08T06:49:58.739Z,99244.44
2022-08-08T06:52:01.407Z,99241.16
2022-08-08T06:54:03.955Z,99245.84
2022-08-08T06:56:09.453Z,99249.53
2022-08-08T06:58:12.104Z,99250.09
2022-08-08T07:00:14.612Z,99247.88
2022-08-08T07:02:28.996Z,99245.97
2022-08-08T07:04:54.568Z,99249.28
2022-08-08T07:07:10.510Z,99249.00
2022-08-08T07:09:20.931Z,99242.25
2022-08-08T07:11:30.330Z,99242.25
2022-08-08T07:14:00.670Z,99249.44
2022-08-08T07:16:12.222Z,99241.41
2022-08-08T07:18:40.671Z,99246.47
2022-08-08T07:20:54.268Z,99247.88
2022-08-08T07:23:04.650Z,99248.03
2022-08-08T07:25:14.626Z,99243.38
2022-08-08T07:27:35.137Z,99252.69
2022-08-08T07:30:02.534Z,99240.44
2022-08-08T07:32:15.844Z,99243.00
2022-08-08T07:34:31.829Z,99245.06
2022-08-08T07:36:41.933Z,99249.09
2022-08-08T07:38:53.347Z,99246.72
2022-08-08T07:41:04.485Z,99252.75
2022-08-08T07:43:11.853Z,99250.03
2022-08-08T07:45:22.675Z,99251.25
2022-08-08T07:47:39.367Z,99244.88
2022-08-08T07:49:46.245Z,99242.47
2022-08-08T07:51:54.116Z,99242.06
2022-08-08T07:54:26.684Z,99245.72
2022-08-08T07:57:03.728Z,99245.38
2022-08-08T07:59:15.780Z,99246.59
2022-08-08T08:02:33.667Z,99242.19
2022-08-08T08:04:17.730Z,99247.34
2022-08-08T08:06:20.634Z,99244.56
2022-08-08T08:08:39.454Z,99252.13
2022-08-08T08:10:57.250Z,99252.94
2022-08-08T08:13:43.044Z,99250.50
2022-08-08T08:16:06.986Z,99247.81
2022-08-08T08:18:14.280Z,99251.41
2022-08-08T08:20:20.700Z,99249.41
2022-08-08T08:22:31.700Z,99242.91
2022-08-08T08:24:38.302Z,99244.53
2022-08-08T08:26:52.477Z,99244.16
2022-08-08T08:28:56.426Z,99245.75
2022-08-08T08:31:05.002Z,99244.84
2022-08-08T08:33:11.125Z,99240.78
2022-08-08T08:35:15.284Z,99239.88
2022-08-08T08:37:20.465Z,99246.28
2022-08-08T08:39:23.925Z,99238.13
2022-08-08T08:41:32.515Z,99241.66
2022-08-08T08:43:36.542Z,99237.94
2022-08-08T08:45:47.686Z,99237.50
2022-08-08T08:47:52.901Z,99236.56
2022-08-08T08:49:55.258Z,99239.28
2022-08-08T08:52:02.036Z,99245.94
2022-08-08T08:54:08.048Z,99229.28
2022-08-08T08:56:14.538Z,99233.19
2022-08-08T08:58:30.447Z,99238.69
2022-08-08T09:01:05.365Z,99238.53
2022-08-08T09:03:02.206Z,99231.13
2022-08-08T09:05:28.837Z,99234.16
2022-08-08T09:07:38.716Z,99236.41
2022-08-08T09:09:48.303Z,99237.41
2022-08-08T09:12:07.890Z,99231.63
2022-08-08T09:14:13.177Z,99239.06
2022-08-08T09:16:18.937Z,99227.97
2022-08-08T09:18:21.753Z,99233.00
2022-08-08T09:21:56.670Z,99238.03
2022-08-08T09:22:51.610Z,99238.53
2022-08-08T09:24:59.122Z,99239.47
2022-08-08T09:27:09.263Z,99241.22
2022-08-08T09:29:24.978Z,99232.84
2022-08-08T09:31:56.687Z,99241.81
2022-08-08T09:34:31.261Z,99231.81
2022-08-08T09:36:28.475Z,99221.03
2022-08-08T09:38:54.621Z,99230.81
2022-08-08T09:41:05.071Z,99234.16
2022-08-08T09:44:04.685Z,99225.34
2022-08-08T09:46:04.119Z,99231.09
2022-08-08T09:48:17.755Z,99218.28
2022-08-08T09:50:25.720Z,99220.34
2022-08-08T09:53:05.633Z,99221.28
2022-08-08T09:54:54.574Z,99216.19
2022-08-08T09:57:02.675Z,99215.84
2022-08-08T09:59:32.147Z,99209.50
2022-08-08T10:01:59.992Z,99201.56
2022-08-08T10:03:56.122Z,99206.06
2022-08-08T10:06:01.348Z,99203.78
2022-08-08T10:08:04.616Z,99202.66
2022-08-08T10:10:11.573Z,99200.31
2022-08-08T10:12:26.932Z,99195.13
2022-08-08T10:14:39.383Z,99191.16
2022-08-08T10:16:42.592Z,99209.00
2022-08-08T10:18:44.211Z,99199.34
2022-08-08T10:21:00.507Z,99202.66
2022-08-08T10:23:05.474Z,99208.38
2022-08-08T10:25:20.321Z,99196.69
2022-08-08T10:27:34.086Z,99197.13
2022-08-08T10:29:59.881Z,99195.53
2022-08-08T10:32:26.338Z,99191.56
2022-08-08T10:34:29.709Z,99192.34
2022-08-08T10:36:33.926Z,99189.13
2022-08-08T10:38:37.914Z,99191.97
2022-08-08T10:40:42.853Z,99188.72
2022-08-08T10:42:49.686Z,99182.28
2022-08-08T10:45:01.016Z,99186.72
2022-08-08T10:47:20.568Z,99185.88
2022-08-08T10:49:26.817Z,99181.84
2022-08-08T10:51:51.006Z,99183.88
2022-08-08T10:53:59.567Z,99182.31
2022-08-08T10:56:02.264Z,99183.53
2022-08-08T10:58:09.237Z,99181.91
2022-08-08T11:00:13.958Z,99179.47
2022-08-08T11:02:25.357Z,99178.66
2022-08-08T11:04:29.888Z,99183.53
2022-08-08T11:06:41.674Z,99179.88
2022-08-08T11:08:49.205Z,99188.47
2022-08-08T11:11:07.958Z,99183.63
2022-08-08T11:13:29.834Z,99192.56
2022-08-08T11:15:32.247Z,99184.09
2022-08-08T11:18:00.688Z,99186.53
2022-08-08T11:20:03.997Z,99179.28
2022-08-08T11:22:19.051Z,99165.97
2022-08-08T11:24:21.897Z,99166.81
2022-08-08T11:26:28.001Z,99170.09
2022-08-08T11:28:34.665Z,99157.56
2022-08-08T11:30:50.563Z,99162.84
2022-08-08T11:32:57.423Z,99162.03
2022-08-08T11:35:29.327Z,99162.44
2022-08-08T11:38:35.293Z,99157.19
2022-08-08T11:40:00.180Z,99157.16
2022-08-08T11:42:03.009Z,99156.78
2022-08-08T11:44:15.787Z,99168.53
2022-08-08T11:46:18.685Z,99161.25
2022-08-08T11:48:22.292Z,99156.41
2022-08-08T11:50:30.703Z,99161.25
2022-08-08T11:52:33.586Z,99155.56
2022-08-08T11:54:38.370Z,99148.28
2022-08-08T11:56:56.009Z,99153.16
2022-08-08T11:59:07.949Z,99153.56
2022-08-08T12:01:16.159Z,99145.88
2022-08-08T12:03:24.605Z,99150.75
2022-08-08T12:05:36.036Z,99144.28
2022-08-08T12:08:04.867Z,99146.69
2022-08-08T12:10:14.869Z,99141.84
2022-08-08T12:12:28.353Z,99139.44
2022-08-08T12:14:30.671Z,99135.34
2022-08-08T12:16:46.600Z,99141.47
2022-08-08T12:18:49.973Z,99137.81
2022-08-08T12:20:55.263Z,99128.13
2022-08-08T12:22:58.572Z,99132.97
2022-08-08T12:25:01.068Z,99135.41
2022-08-08T12:27:07.130Z,99123.28
2022-08-08T12:29:40.172Z,99121.66
2022-08-08T12:31:54.250Z,99120.81
2022-08-08T12:34:02.053Z,99120.81
2022-08-08T12:36:14.686Z,99124.88
2022-08-08T12:38:18.373Z,99116.34
2022-08-08T12:40:23.545Z,99122.44
2022-08-08T12:42:32.801Z,99120.44
2022-08-08T12:44:36.774Z,99117.19
2022-08-08T12:46:41.161Z,99123.25
2022-08-08T12:49:20.691Z,99121.22
2022-08-08T12:51:21.833Z,99121.63
2022-08-08T12:53:37.938Z,99116.78
2022-08-08T12:56:19.515Z,99124.06
2022-08-08T12:58:27.249Z,99128.91
2022-08-08T13:00:34.055Z,99122.03
2022-08-08T13:02:51.526Z,99114.75
2022-08-08T13:05:00.284Z,99122.44
2022-08-08T13:07:05.271Z,99117.16
2022-08-08T13:09:10.502Z,99118.41
2022-08-08T13:11:23.045Z,99117.97
2022-08-08T13:13:38.005Z,99111.09
2022-08-08T13:15:42.125Z,99110.66
2022-08-08T13:18:11.583Z,99120.78
2022-08-08T13:20:18.512Z,99115.50
2022-08-08T13:22:24.574Z,99113.47
2022-08-08T13:24:40.797Z,99102.13
2022-08-08T13:26:47.209Z,99091.59
2022-08-08T13:28:50.329Z,99091.16
2022-08-08T13:30:52.371Z,99096.84
2022-08-08T13:33:02.326Z,99090.78
2022-08-08T13:35:11.726Z,99089.97
2022-08-08T13:38:03.150Z,99089.13
2022-08-08T13:39:51.824Z,99082.66
2022-08-08T13:42:01.367Z,99094.41
2022-08-08T13:44:03.527Z,99090.34
2022-08-08T13:46:26.434Z,99094.41
2022-08-08T13:48:29.205Z,99092.34
2022-08-08T13:50:48.943Z,99081.00
2022-08-08T13:52:54.881Z,99085.06
2022-08-08T13:54:59.133Z,99078.59
2022-08-08T13:57:12.359Z,99082.25
2022-08-08T13:59:14.785Z,99080.22
2022-08-08T14:01:23.329Z,99070.91
2022-08-08T14:03:56.068Z,99070.13
2022-08-08T14:06:20.532Z,99069.31
2022-08-08T14:08:34.852Z,99074.97
2022-08-08T14:10:39.470Z,99068.88
2022-08-08T14:12:45.177Z,99078.63
2022-08-08T14:14:47.736Z,99076.16
2022-08-08T14:16:50.868Z,99072.13
2022-08-08T14:19:02.917Z,99068.88
2022-08-08T14:21:15.003Z,99075.34
2022-08-08T14:24:07.480Z,99069.66
2022-08-08T14:25:53.983Z,99070.09
2022-08-08T14:28:08.316Z,99065.63
2022-08-08T14:30:17.803Z,99067.59
2022-08-08T14:32:34.756Z,99067.19
2022-08-08T14:34:37.205Z,99065.56
2022-08-08T14:36:40.699Z,99077.28
2022-08-08T14:38:58.673Z,99067.13
2022-08-08T14:41:13.097Z,99068.72
2022-08-08T14:44:10.661Z,99068.28
2022-08-08T14:46:16.299Z,99067.91
2022-08-08T14:48:34.156Z,99062.59
2022-08-08T14:50:39.188Z,99067.06
2022-08-08T14:53:13.499Z,99069.81
2022-08-08T14:55:22.153Z,99066.13
2022-08-08T14:58:02.493Z,99057.59
2022-08-08T14:59:50.212Z,99069.72
2022-08-08T15:01:53.368Z,99056.72
2022-08-08T15:04:08.304Z,99072.47
2022-08-08T15:06:10.933Z,99078.50
2022-08-08T15:08:22.159Z,99067.13
2022-08-08T15:10:35.660Z,99063.44
2022-08-08T15:12:38.595Z,99063.00
2022-08-08T15:14:40.508Z,99056.06
2022-08-08T15:16:44.249Z,99060.09
2022-08-08T15:18:51.340Z,99060.84
2022-08-08T15:20:53.554Z,99047.44
2022-08-08T15:22:55.523Z,99057.53
2022-08-08T15:24:57.742Z,99055.47
2022-08-08T15:27:11.901Z,99054.16
2022-08-08T15:29:22.330Z,99050.94
2022-08-08T15:31:38.788Z,99046.06
2022-08-08T15:33:58.514Z,99049.28
2022-08-08T15:36:01.548Z,99043.16
2022-08-08T15:38:04.673Z,99038.72
2022-08-08T15:40:11.299Z,99044.38
2022-08-08T15:42:31.726Z,99041.94
2022-08-08T15:44:34.430Z,99048.38
2022-08-08T15:46:36.118Z,99045.94
2022-08-08T15:48:37.847Z,99043.88
2022-08-08T15:50:58.729Z,99040.22
2022-08-08T15:53:00.586Z,99041.81
2022-08-08T15:55:02.319Z,99046.25
2022-08-08T15:57:09.494Z,99043.78
2022-08-08T15:59:11.510Z,99039.31
2022-08-08T16:01:14.482Z,99035.25
2022-08-08T16:03:23.598Z,99038.84
2022-08-08T16:05:35.782Z,99040.06
2022-08-08T16:07:51.296Z,99039.16
2022-08-08T16:13:09.301Z,99038.28
2022-08-08T16:13:13.745Z,99047.94
2022-08-08T16:14:53.648Z,99040.63
2022-08-08T16:16:57.408Z,99041.34
2022-08-08T16:18:59.269Z,99044.50
2022-08-08T16:21:01.370Z,99035.97
2022-08-08T16:23:03.479Z,99041.13
2022-08-08T16:25:08.860Z,99047.53
2022-08-08T16:27:18.094Z,99048.25
2022-08-08T16:29:37.079Z,99041.28
2022-08-08T16:31:48.743Z,99042.03
2022-08-08T16:33:58.312Z,99039.91
2022-08-08T16:36:00.999Z,99040.66
2022-08-08T16:38:02.826Z,99036.59
2022-08-08T16:40:07.165Z,99040.00
2022-08-08T16:42:18.004Z,99033.84
2022-08-08T16:44:28.168Z,99035.34
2022-08-08T16:46:44.454Z,99035.59
2022-08-08T16:48:47.868Z,99035.56
2022-08-08T16:50:51.894Z,99029.44
2022-08-08T16:55:00.955Z,99033.03
2022-08-08T16:55:52.390Z,99031.69
2022-08-08T16:58:14.658Z,99030.84
2022-08-08T17:00:09.112Z,99024.78
2022-08-08T17:02:32.628Z,99020.63
2022-08-08T17:04:41.173Z,99025.44
2022-08-08T17:06:46.681Z,99024.94
2022-08-08T17:08:48.662Z,99029.31
2022-08-08T17:10:58.196Z,99026.44
2022-08-08T17:13:00.467Z,99029.97
2022-08-08T17:15:02.372Z,99023.44
2022-08-08T17:17:41.730Z,99028.22
2022-08-08T17:19:42.491Z,99037.00
2022-08-08T17:21:45.518Z,99034.09
2022-08-08T17:24:00.730Z,99040.50
2022-08-08T17:26:05.161Z,99038.03
2022-08-08T17:28:08.279Z,99043.25
2022-08-08T17:30:27.206Z,99041.56
2022-08-08T17:32:44.562Z,99040.69
2022-08-08T17:35:53.341Z,99040.63
2022-08-08T17:37:19.021Z,99047.00
2022-08-08T17:39:46.076Z,99049.41
2022-08-08T17:41:48.540Z,99049.31
2022-08-08T17:44:02.365Z,99054.91
2022-08-08T17:46:04.825Z,99051.63
2022-08-08T17:48:14.906Z,99053.19
2022-08-08T17:50:28.286Z,99058.78
2022-08-08T17:52:35.474Z,99063.09
2022-08-08T17:54:39.142Z,99058.19
2022-08-08T17:56:41.320Z,99058.16
2022-08-08T17:58:52.246Z,99056.03
2022-08-08T18:00:56.399Z,99055.97
2022-08-08T18:03:08.465Z,99065.97
2022-08-08T18:05:23.081Z,99066.28
2022-08-08T18:08:15.417Z,99063.41
2022-08-08T18:09:48.449Z,99070.13
2022-08-08T18:11:51.180Z,99073.31
2022-08-08T18:13:55.922Z,99079.25
2022-08-08T18:16:04.375Z,99080.00
2022-08-08T18:18:28.848Z,99088.38
2022-08-08T18:20:37.248Z,99079.47
2022-08-08T18:22:51.544Z,99093.03
2022-08-08T18:24:55.934Z,99096.59
2022-08-08T18:26:59.364Z,99094.50
2022-08-08T18:29:15.444Z,99092.44
2022-08-08T18:31:17.671Z,99095.97
2022-08-08T18:33:36.487Z,99096.69
2022-08-08T18:35:47.459Z,99105.88
2022-08-08T18:37:50.156Z,99105.34
2022-08-08T18:39:53.329Z,99105.72
2022-08-08T18:41:58.250Z,99114.91
2022-08-08T18:44:14.229Z,99117.25
2022-08-08T18:46:54.273Z,99118.00
2022-08-08T18:48:37.698Z,99117.56
2022-08-08T18:50:50.163Z,99126.72
2022-08-08T18:53:00.140Z,99133.88
2022-08-08T18:55:09.836Z,99130.53
2022-08-08T18:57:13.574Z,99135.28
2022-08-08T18:59:15.503Z,99137.59
2022-08-08T19:02:25.771Z,99143.16
2022-08-08T19:04:10.397Z,99146.25
2022-08-08T19:06:02.080Z,99150.94
2022-08-08T19:08:24.969Z,99153.25
2022-08-08T19:10:32.832Z,99154.75
2022-08-08T19:12:43.545Z,99157.47
2022-08-08T19:14:46.670Z,99165.00
2022-08-08T19:16:52.445Z,99164.91
2022-08-08T19:19:01.965Z,99167.63
2022-08-08T19:21:28.948Z,99167.53
2022-08-08T19:23:29.314Z,99181.03
2022-08-08T19:26:01.283Z,99176.13
2022-08-08T19:28:00.347Z,99175.94
2022-08-08T19:30:04.726Z,99184.72
2022-08-08T19:32:23.078Z,99174.94
2022-08-08T19:34:35.785Z,99176.03
2022-08-08T19:36:42.425Z,99175.09
2022-08-08T19:38:47.215Z,99184.22
2022-08-08T19:40:56.063Z,99185.28
2022-08-08T19:43:00.958Z,99195.63
2022-08-08T19:45:07.242Z,99186.75
2022-08-08T19:47:09.447Z,99188.97
2022-08-08T19:49:14.278Z,99195.69
2022-08-08T19:51:16.576Z,99193.13
2022-08-08T19:53:50.879Z,99199.00
2022-08-08T19:55:48.556Z,99201.22
2022-08-08T19:57:54.511Z,99193.06
2022-08-08T19:59:57.498Z,99203.81
2022-08-08T20:02:03.547Z,99203.25
2022-08-08T20:04:06.632Z,99205.94
2022-08-08T20:06:14.629Z,99211.09
2022-08-08T20:08:37.488Z,99206.56
2022-08-08T20:10:40.326Z,99213.53
2022-08-08T20:14:10.339Z,99207.47
2022-08-08T20:15:16.323Z,99208.09
2022-08-08T20:17:27.967Z,99205.50
2022-08-08T20:19:42.127Z,99212.53
2022-08-08T20:21:45.142Z,99210.41
2022-08-08T20:23:48.034Z,99209.50
2022-08-08T20:25:54.376Z,99206.94
2022-08-08T20:27:56.234Z,99219.19
2022-08-08T20:30:00.975Z,99222.22
2022-08-08T20:32:10.181Z,99221.31
2022-08-08T20:34:29.369Z,99217.44
2022-08-08T20:36:33.358Z,99218.00
2022-08-08T20:38:41.565Z,99217.88
2022-08-08T20:40:45.949Z,99221.38
2022-08-08T20:42:55.063Z,99218.81
2022-08-08T20:44:58.635Z,99216.22
2022-08-08T20:47:00.253Z,99223.72
2022-08-08T20:49:04.989Z,99217.97
2022-08-08T20:51:06.624Z,99226.59
2022-08-08T20:53:16.384Z,99227.28
2022-08-08T20:55:25.952Z,99231.13
2022-08-08T20:57:28.045Z,99238.59
2022-08-08T20:59:30.120Z,99243.25
2022-08-08T21:01:32.105Z,99239.88
2022-08-08T21:03:33.684Z,99236.94
2022-08-08T21:05:59.408Z,99241.06
2022-08-08T21:08:33.739Z,99240.97
2022-08-08T21:10:28.305Z,99239.22
2022-08-08T21:12:35.390Z,99238.25
2022-08-08T21:14:37.107Z,99247.69
2022-08-08T21:16:38.728Z,99240.78
2022-08-08T21:18:40.388Z,99243.44
2022-08-08T21:20:42.970Z,99240.53
2022-08-08T21:22:52.116Z,99239.09
2022-08-08T21:24:54.681Z,99251.31
2022-08-08T21:26:57.675Z,99250.03
2022-08-08T21:29:00.922Z,99251.53
2022-08-08T21:31:22.732Z,99251.84
2022-08-08T21:33:26.179Z,99251.25
2022-08-08T21:36:18.358Z,99258.00
2022-08-08T21:37:54.093Z,99253.44
2022-08-08T21:39:57.349Z,99256.56
2022-08-08T21:42:01.807Z,99258.88
2022-08-08T21:44:03.708Z,99260.38
2022-08-08T21:48:07.424Z,99253.81
2022-08-08T21:48:41.122Z,99256.13
2022-08-08T21:50:46.099Z,99252.84
2022-08-08T21:54:30.979Z,99255.16
2022-08-08T21:56:18.307Z,99257.97
2022-08-08T21:57:42.062Z,99262.25
2022-08-08T22:00:03.546Z,99258.97
2022-08-08T22:02:16.056Z,99260.47
2022-08-08T22:04:20.885Z,99256.88
2022-08-08T22:06:31.122Z,99259.19
2022-08-08T22:08:37.322Z,99252.28
2022-08-08T22:10:43.617Z,99249.84
2022-08-08T22:12:51.216Z,99252.13
2022-08-08T22:14:53.728Z,99270.41
2022-08-08T22:16:56.233Z,99266.66
2022-08-08T22:18:58.017Z,99266.19
2022-08-08T22:21:14.020Z,99272.81
2022-08-08T22:23:17.470Z,99268.19
2022-08-08T22:25:25.213Z,99270.41
2022-08-08T22:28:00.679Z,99275.00
2022-08-08T22:30:02.669Z,99275.53
2022-08-08T22:32:05.449Z,99275.72
2022-08-08T22:34:12.528Z,99268.66
2022-08-08T22:36:16.445Z,99274.91
2022-08-08T22:38:34.052Z,99274.28
2022-08-08T22:40:38.514Z,99275.28
2022-08-08T22:42:40.526Z,99280.72
2022-08-08T22:44:42.494Z,99276.16
2022-08-08T22:46:45.048Z,99281.91
2022-08-08T22:48:50.510Z,99283.72
2022-08-08T22:50:56.289Z,99278.31
2022-08-08T22:54:31.459Z,99283.25
2022-08-08T22:55:28.460Z,99280.97
2022-08-08T22:57:44.293Z,99283.94
2022-08-08T22:59:58.765Z,99285.25
2022-08-08T23:02:04.485Z,99284.91
2022-08-08T23:04:14.624Z,99283.94
2022-08-08T23:06:34.127Z,99287.22
2022-08-08T23:08:44.291Z,99283.78
2022-08-08T23:11:05.900Z,99283.16
2022-08-08T23:13:14.534Z,99287.59
2022-08-08T23:16:37.932Z,99291.66
2022-08-08T23:17:46.526Z,99294.13
2022-08-08T23:19:55.938Z,99295.44
2022-08-08T23:21:57.551Z,99293.16
2022-08-08T23:23:59.394Z,99297.22
2022-08-08T23:26:01.036Z,99292.59
2022-08-08T23:28:03.709Z,99298.69
2022-08-08T23:30:09.261Z,99304.72
2022-08-08T23:32:11.280Z,99298.81
2022-08-08T23:34:15.824Z,99306.19
2022-08-08T23:36:24.254Z,99299.41
2022-08-08T23:38:28.424Z,99312.72
2022-08-08T23:40:31.034Z,99300.06
2022-08-08T23:42:32.685Z,99303.31
2022-08-08T23:44:39.416Z,99303.78
2022-08-08T23:49:00.668Z,99301.47
2022-08-08T23:49:20.307Z,99299.41
2022-08-08T23:51:41.849Z,99305.47
2022-08-08T23:53:55.968Z,99299.03
2022-08-08T23:56:06.477Z,99295.38
2022-08-08T23:58:32.030Z,99288.00
